sensor_id;sensor_type;location;lat;lon;timestamp;temperature;humidity
5172;DHT22;2605;49.770;9.868;2023-04-28T00:00:27;10.20;99.90
5172;DHT22;2605;49.770;9.868;2023-04-28T00:02:53;10.20;99.90
5172;DHT22;2605;49.770;9.868;2023-04-28T00:05:19;10.20;99.90
5172;DHT22;2605;49.770;9.868;2023-04-28T00:07:45;10.30;99.90
5172;DHT22;2605;49.770;9.868;2023-04-28T00:10:11;10.30;99.90
5172;DHT22;2605;49.770;9.868;2023-04-28T00:12:36;10.30;99.90
5172;DHT22;2605;49.770;9.868;2023-04-28T00:15:02;10.30;99.90
5172;DHT22;2605;49.770;9.868;2023-04-28T00:17:28;10.30;99.90
5172;DHT22;2605;49.770;9.868;2023-04-28T00:19:53;10.30;99.90
5172;DHT22;2605;49.770;9.868;2023-04-28T00:22:19;10.20;99.90
5172;DHT22;2605;49.770;9.868;2023-04-28T00:24:44;10.20;99.90
5172;DHT22;2605;49.770;9.868;2023-04-28T00:27:10;10.20;99.90
5172;DHT22;2605;49.770;9.868;2023-04-28T00:29:35;10.20;99.90
5172;DHT22;2605;49.770;9.868;2023-04-28T00:32:01;10.20;99.90
5172;DHT22;2605;49.770;9.868;2023-04-28T00:34:27;10.20;99.90
5172;DHT22;2605;49.770;9.868;2023-04-28T00:36:54;10.30;99.90
5172;DHT22;2605;49.770;9.868;2023-04-28T00:39:20;10.20;99.90
5172;DHT22;2605;49.770;9.868;2023-04-28T00:41:47;10.20;99.90
5172;DHT22;2605;49.770;9.868;2023-04-28T00:44:12;10.20;99.90
5172;DHT22;2605;49.770;9.868;2023-04-28T00:46:39;10.30;99.90
5172;DHT22;2605;49.770;9.868;2023-04-28T00:49:05;10.30;99.90
5172;DHT22;2605;49.770;9.868;2023-04-28T00:51:30;10.30;99.90
5172;DHT22;2605;49.770;9.868;2023-04-28T00:53:58;10.30;99.90
5172;DHT22;2605;49.770;9.868;2023-04-28T00:56:23;10.30;99.90
5172;DHT22;2605;49.770;9.868;2023-04-28T00:58:52;10.30;99.90
5172;DHT22;2605;49.770;9.868;2023-04-28T01:01:17;10.30;99.90
5172;DHT22;2605;49.770;9.868;2023-04-28T01:03:43;10.30;99.90
5172;DHT22;2605;49.770;9.868;2023-04-28T01:06:09;10.30;99.90
5172;DHT22;2605;49.770;9.868;2023-04-28T01:08:36;10.30;99.90
5172;DHT22;2605;49.770;9.868;2023-04-28T01:11:02;10.30;99.90
5172;DHT22;2605;49.770;9.868;2023-04-28T01:13:28;10.20;99.90
5172;DHT22;2605;49.770;9.868;2023-04-28T01:15:54;10.20;99.90
5172;DHT22;2605;49.770;9.868;2023-04-28T01:18:20;10.20;99.90
5172;DHT22;2605;49.770;9.868;2023-04-28T01:20:46;10.20;99.90
5172;DHT22;2605;49.770;9.868;2023-04-28T01:23:16;10.20;99.90
5172;DHT22;2605;49.770;9.868;2023-04-28T01:25:42;10.20;99.90
5172;DHT22;2605;49.770;9.868;2023-04-28T01:28:08;10.30;99.90
5172;DHT22;2605;49.770;9.868;2023-04-28T01:30:34;10.20;99.90
5172;DHT22;2605;49.770;9.868;2023-04-28T01:33:03;10.30;99.90
5172;DHT22;2605;49.770;9.868;2023-04-28T01:35:28;10.30;99.90
5172;DHT22;2605;49.770;9.868;2023-04-28T01:37:54;10.20;99.90
5172;DHT22;2605;49.770;9.868;2023-04-28T01:40:19;10.20;99.90
5172;DHT22;2605;49.770;9.868;2023-04-28T01:42:45;10.20;99.90
5172;DHT22;2605;49.770;9.868;2023-04-28T01:45:11;10.20;99.90
5172;DHT22;2605;49.770;9.868;2023-04-28T01:47:36;10.20;99.90
5172;DHT22;2605;49.770;9.868;2023-04-28T01:50:02;10.20;99.90
5172;DHT22;2605;49.770;9.868;2023-04-28T01:52:27;10.20;99.90
5172;DHT22;2605;49.770;9.868;2023-04-28T01:54:54;10.20;99.90
5172;DHT22;2605;49.770;9.868;2023-04-28T01:57:19;10.20;99.90
5172;DHT22;2605;49.770;9.868;2023-04-28T01:59:45;10.20;99.90
5172;DHT22;2605;49.770;9.868;2023-04-28T02:02:11;10.20;99.90
5172;DHT22;2605;49.770;9.868;2023-04-28T02:04:37;10.20;99.90
5172;DHT22;2605;49.770;9.868;2023-04-28T02:07:03;10.10;99.90
5172;DHT22;2605;49.770;9.868;2023-04-28T02:09:28;10.10;99.90
5172;DHT22;2605;49.770;9.868;2023-04-28T02:11:54;10.10;99.90
5172;DHT22;2605;49.770;9.868;2023-04-28T02:14:19;10.10;99.90
5172;DHT22;2605;49.770;9.868;2023-04-28T02:16:45;10.10;99.90
5172;DHT22;2605;49.770;9.868;2023-04-28T02:19:10;10.10;99.90
5172;DHT22;2605;49.770;9.868;2023-04-28T02:21:36;10.00;99.90
5172;DHT22;2605;49.770;9.868;2023-04-28T02:24:01;10.00;99.90
5172;DHT22;2605;49.770;9.868;2023-04-28T02:26:27;10.00;99.90
5172;DHT22;2605;49.770;9.868;2023-04-28T02:28:52;10.00;99.90
5172;DHT22;2605;49.770;9.868;2023-04-28T02:31:18;10.00;99.90
5172;DHT22;2605;49.770;9.868;2023-04-28T02:33:44;10.00;99.90
5172;DHT22;2605;49.770;9.868;2023-04-28T02:36:09;10.00;99.90
5172;DHT22;2605;49.770;9.868;2023-04-28T02:38:35;10.00;99.90
5172;DHT22;2605;49.770;9.868;2023-04-28T02:41:03;10.00;99.90
5172;DHT22;2605;49.770;9.868;2023-04-28T02:43:30;10.00;99.90
5172;DHT22;2605;49.770;9.868;2023-04-28T02:45:56;10.00;99.90
5172;DHT22;2605;49.770;9.868;2023-04-28T02:48:22;10.00;99.90
5172;DHT22;2605;49.770;9.868;2023-04-28T02:50:48;10.00;99.90
5172;DHT22;2605;49.770;9.868;2023-04-28T02:53:13;10.00;99.90
5172;DHT22;2605;49.770;9.868;2023-04-28T02:55:39;10.00;99.90
5172;DHT22;2605;49.770;9.868;2023-04-28T02:58:05;10.00;99.90
5172;DHT22;2605;49.770;9.868;2023-04-28T03:00:30;10.00;99.90
5172;DHT22;2605;49.770;9.868;2023-04-28T03:02:56;10.00;99.90
5172;DHT22;2605;49.770;9.868;2023-04-28T03:05:21;10.00;99.90
5172;DHT22;2605;49.770;9.868;2023-04-28T03:07:47;10.00;99.90
5172;DHT22;2605;49.770;9.868;2023-04-28T03:10:15;10.10;99.90
5172;DHT22;2605;49.770;9.868;2023-04-28T03:12:40;9.90;99.90
5172;DHT22;2605;49.770;9.868;2023-04-28T03:15:06;10.00;99.90
5172;DHT22;2605;49.770;9.868;2023-04-28T03:17:33;10.00;99.90
5172;DHT22;2605;49.770;9.868;2023-04-28T03:20:01;10.00;99.90
5172;DHT22;2605;49.770;9.868;2023-04-28T03:22:27;10.00;99.90
5172;DHT22;2605;49.770;9.868;2023-04-28T03:24:52;10.00;99.90
5172;DHT22;2605;49.770;9.868;2023-04-28T03:27:18;10.00;99.90
5172;DHT22;2605;49.770;9.868;2023-04-28T03:29:43;10.10;99.90
5172;DHT22;2605;49.770;9.868;2023-04-28T03:32:09;10.10;99.90
5172;DHT22;2605;49.770;9.868;2023-04-28T03:34:35;10.40;99.90
5172;DHT22;2605;49.770;9.868;2023-04-28T03:37:01;10.10;99.90
5172;DHT22;2605;49.770;9.868;2023-04-28T03:39:26;10.20;99.90
5172;DHT22;2605;49.770;9.868;2023-04-28T03:41:52;10.20;99.90
5172;DHT22;2605;49.770;9.868;2023-04-28T03:44:17;10.10;99.90
5172;DHT22;2605;49.770;9.868;2023-04-28T03:46:43;10.20;99.90
5172;DHT22;2605;49.770;9.868;2023-04-28T03:49:08;10.20;99.90
5172;DHT22;2605;49.770;9.868;2023-04-28T03:51:36;10.20;99.90
5172;DHT22;2605;49.770;9.868;2023-04-28T03:54:02;10.10;99.90
5172;DHT22;2605;49.770;9.868;2023-04-28T03:56:27;10.10;99.90
5172;DHT22;2605;49.770;9.868;2023-04-28T03:58:53;10.00;99.90
5172;DHT22;2605;49.770;9.868;2023-04-28T04:01:18;10.00;99.90
5172;DHT22;2605;49.770;9.868;2023-04-28T04:03:44;9.90;99.90
5172;DHT22;2605;49.770;9.868;2023-04-28T04:06:09;9.90;99.90
5172;DHT22;2605;49.770;9.868;2023-04-28T04:08:35;9.90;99.90
5172;DHT22;2605;49.770;9.868;2023-04-28T04:11:00;10.00;99.90
5172;DHT22;2605;49.770;9.868;2023-04-28T04:13:26;10.00;99.90
5172;DHT22;2605;49.770;9.868;2023-04-28T04:15:51;10.00;99.90
5172;DHT22;2605;49.770;9.868;2023-04-28T04:18:17;9.90;99.90
5172;DHT22;2605;49.770;9.868;2023-04-28T04:20:49;9.80;99.90
5172;DHT22;2605;49.770;9.868;2023-04-28T04:23:15;9.80;99.90
5172;DHT22;2605;49.770;9.868;2023-04-28T04:25:41;9.80;99.90
5172;DHT22;2605;49.770;9.868;2023-04-28T04:28:06;9.80;99.90
5172;DHT22;2605;49.770;9.868;2023-04-28T04:30:32;9.90;99.90
5172;DHT22;2605;49.770;9.868;2023-04-28T04:32:58;9.90;99.90
5172;DHT22;2605;49.770;9.868;2023-04-28T04:35:23;9.90;99.90
5172;DHT22;2605;49.770;9.868;2023-04-28T04:37:49;10.00;99.90
5172;DHT22;2605;49.770;9.868;2023-04-28T04:40:15;10.00;99.90
5172;DHT22;2605;49.770;9.868;2023-04-28T04:42:40;10.00;99.90
5172;DHT22;2605;49.770;9.868;2023-04-28T04:45:06;10.00;99.90
5172;DHT22;2605;49.770;9.868;2023-04-28T04:47:32;9.90;99.90
5172;DHT22;2605;49.770;9.868;2023-04-28T04:49:58;9.90;99.90
5172;DHT22;2605;49.770;9.868;2023-04-28T04:52:23;9.90;99.90
5172;DHT22;2605;49.770;9.868;2023-04-28T04:54:49;9.90;99.90
5172;DHT22;2605;49.770;9.868;2023-04-28T04:57:15;9.90;99.90
5172;DHT22;2605;49.770;9.868;2023-04-28T04:59:40;9.80;99.90
5172;DHT22;2605;49.770;9.868;2023-04-28T05:02:06;9.80;99.90
5172;DHT22;2605;49.770;9.868;2023-04-28T05:04:31;9.80;99.90
5172;DHT22;2605;49.770;9.868;2023-04-28T05:06:57;9.90;99.90
5172;DHT22;2605;49.770;9.868;2023-04-28T05:09:22;10.00;99.90
5172;DHT22;2605;49.770;9.868;2023-04-28T05:11:48;10.00;99.90
5172;DHT22;2605;49.770;9.868;2023-04-28T05:14:13;10.00;99.90
5172;DHT22;2605;49.770;9.868;2023-04-28T05:16:40;10.00;99.90
5172;DHT22;2605;49.770;9.868;2023-04-28T05:19:06;10.10;99.90
5172;DHT22;2605;49.770;9.868;2023-04-28T05:21:31;10.10;99.90
5172;DHT22;2605;49.770;9.868;2023-04-28T05:23:57;10.20;99.90
5172;DHT22;2605;49.770;9.868;2023-04-28T05:26:26;10.30;99.90
5172;DHT22;2605;49.770;9.868;2023-04-28T05:28:51;10.20;99.90
5172;DHT22;2605;49.770;9.868;2023-04-28T05:31:17;10.20;99.90
5172;DHT22;2605;49.770;9.868;2023-04-28T05:33:42;10.40;99.90
5172;DHT22;2605;49.770;9.868;2023-04-28T05:36:08;10.40;99.90
5172;DHT22;2605;49.770;9.868;2023-04-28T05:38:34;10.50;99.90
5172;DHT22;2605;49.770;9.868;2023-04-28T05:41:00;10.60;99.90
5172;DHT22;2605;49.770;9.868;2023-04-28T05:43:26;10.60;99.90
5172;DHT22;2605;49.770;9.868;2023-04-28T05:45:52;10.70;99.90
5172;DHT22;2605;49.770;9.868;2023-04-28T05:48:17;10.70;99.90
5172;DHT22;2605;49.770;9.868;2023-04-28T05:50:43;10.80;99.90
5172;DHT22;2605;49.770;9.868;2023-04-28T05:53:08;10.90;99.90
5172;DHT22;2605;49.770;9.868;2023-04-28T05:55:34;11.00;99.90
5172;DHT22;2605;49.770;9.868;2023-04-28T05:58:04;11.00;99.90
5172;DHT22;2605;49.770;9.868;2023-04-28T06:00:29;11.10;99.90
5172;DHT22;2605;49.770;9.868;2023-04-28T06:02:55;11.10;99.90
5172;DHT22;2605;49.770;9.868;2023-04-28T06:05:21;11.10;99.90
5172;DHT22;2605;49.770;9.868;2023-04-28T06:07:47;11.10;99.90
5172;DHT22;2605;49.770;9.868;2023-04-28T06:10:12;11.10;99.90
5172;DHT22;2605;49.770;9.868;2023-04-28T06:12:38;11.10;99.90
5172;DHT22;2605;49.770;9.868;2023-04-28T06:15:04;11.10;99.90
5172;DHT22;2605;49.770;9.868;2023-04-28T06:17:30;11.20;99.90
5172;DHT22;2605;49.770;9.868;2023-04-28T06:19:57;11.20;99.90
5172;DHT22;2605;49.770;9.868;2023-04-28T06:22:24;11.10;99.90
5172;DHT22;2605;49.770;9.868;2023-04-28T06:24:49;11.00;99.90
5172;DHT22;2605;49.770;9.868;2023-04-28T06:27:15;11.10;99.90
5172;DHT22;2605;49.770;9.868;2023-04-28T06:29:40;11.10;99.90
5172;DHT22;2605;49.770;9.868;2023-04-28T06:32:06;11.10;99.90
5172;DHT22;2605;49.770;9.868;2023-04-28T06:34:31;11.20;99.90
5172;DHT22;2605;49.770;9.868;2023-04-28T06:37:00;11.30;99.90
5172;DHT22;2605;49.770;9.868;2023-04-28T06:39:26;11.40;99.90
5172;DHT22;2605;49.770;9.868;2023-04-28T06:41:51;11.40;99.90
5172;DHT22;2605;49.770;9.868;2023-04-28T06:44:17;11.40;99.90
5172;DHT22;2605;49.770;9.868;2023-04-28T06:46:42;11.30;99.90
5172;DHT22;2605;49.770;9.868;2023-04-28T06:49:08;11.30;99.90
5172;DHT22;2605;49.770;9.868;2023-04-28T06:51:33;11.10;99.90
5172;DHT22;2605;49.770;9.868;2023-04-28T06:53:59;11.00;99.90
5172;DHT22;2605;49.770;9.868;2023-04-28T06:56:25;10.80;99.90
5172;DHT22;2605;49.770;9.868;2023-04-28T06:58:51;10.70;99.90
5172;DHT22;2605;49.770;9.868;2023-04-28T07:01:16;10.50;99.90
5172;DHT22;2605;49.770;9.868;2023-04-28T07:03:42;10.30;99.90
5172;DHT22;2605;49.770;9.868;2023-04-28T07:06:07;10.00;99.90
5172;DHT22;2605;49.770;9.868;2023-04-28T07:08:34;9.80;99.90
5172;DHT22;2605;49.770;9.868;2023-04-28T07:11:00;9.70;99.90
5172;DHT22;2605;49.770;9.868;2023-04-28T07:13:29;9.70;99.90
5172;DHT22;2605;49.770;9.868;2023-04-28T07:15:55;9.60;99.90
5172;DHT22;2605;49.770;9.868;2023-04-28T07:18:21;9.70;99.90
5172;DHT22;2605;49.770;9.868;2023-04-28T07:20:46;9.60;99.90
5172;DHT22;2605;49.770;9.868;2023-04-28T07:23:12;9.60;99.90
5172;DHT22;2605;49.770;9.868;2023-04-28T07:25:38;9.60;99.90
5172;DHT22;2605;49.770;9.868;2023-04-28T07:28:06;9.60;99.90
5172;DHT22;2605;49.770;9.868;2023-04-28T07:30:32;9.70;99.90
5172;DHT22;2605;49.770;9.868;2023-04-28T07:32:57;9.90;99.90
5172;DHT22;2605;49.770;9.868;2023-04-28T07:35:23;10.10;99.90
5172;DHT22;2605;49.770;9.868;2023-04-28T07:37:49;10.30;99.90
5172;DHT22;2605;49.770;9.868;2023-04-28T07:40:15;10.50;99.90
5172;DHT22;2605;49.770;9.868;2023-04-28T07:42:41;10.50;99.90
5172;DHT22;2605;49.770;9.868;2023-04-28T07:45:07;10.60;99.90
5172;DHT22;2605;49.770;9.868;2023-04-28T07:47:32;10.70;99.90
5172;DHT22;2605;49.770;9.868;2023-04-28T07:49:58;10.80;99.90
5172;DHT22;2605;49.770;9.868;2023-04-28T07:52:25;10.90;99.90
5172;DHT22;2605;49.770;9.868;2023-04-28T07:54:50;11.00;99.90
5172;DHT22;2605;49.770;9.868;2023-04-28T07:57:16;10.90;99.90
5172;DHT22;2605;49.770;9.868;2023-04-28T07:59:41;10.60;99.90
5172;DHT22;2605;49.770;9.868;2023-04-28T08:02:07;10.30;99.90
5172;DHT22;2605;49.770;9.868;2023-04-28T08:04:32;10.10;99.90
5172;DHT22;2605;49.770;9.868;2023-04-28T08:06:59;10.20;99.90
5172;DHT22;2605;49.770;9.868;2023-04-28T08:09:25;10.30;99.90
5172;DHT22;2605;49.770;9.868;2023-04-28T08:11:51;10.30;99.90
5172;DHT22;2605;49.770;9.868;2023-04-28T08:14:16;10.20;99.90
5172;DHT22;2605;49.770;9.868;2023-04-28T08:16:42;10.00;99.90
5172;DHT22;2605;49.770;9.868;2023-04-28T08:19:08;10.10;99.90
5172;DHT22;2605;49.770;9.868;2023-04-28T08:21:33;10.20;99.90
5172;DHT22;2605;49.770;9.868;2023-04-28T08:23:59;10.30;99.90
5172;DHT22;2605;49.770;9.868;2023-04-28T08:26:25;10.60;99.90
5172;DHT22;2605;49.770;9.868;2023-04-28T08:28:51;10.80;99.90
5172;DHT22;2605;49.770;9.868;2023-04-28T08:31:17;11.00;99.90
5172;DHT22;2605;49.770;9.868;2023-04-28T08:33:42;11.10;99.90
5172;DHT22;2605;49.770;9.868;2023-04-28T08:36:09;11.10;99.90
5172;DHT22;2605;49.770;9.868;2023-04-28T08:38:36;11.20;99.90
5172;DHT22;2605;49.770;9.868;2023-04-28T08:41:04;11.40;99.90
5172;DHT22;2605;49.770;9.868;2023-04-28T08:43:32;11.50;99.90
5172;DHT22;2605;49.770;9.868;2023-04-28T08:45:59;11.50;99.90
5172;DHT22;2605;49.770;9.868;2023-04-28T08:48:26;11.60;99.90
5172;DHT22;2605;49.770;9.868;2023-04-28T08:50:53;11.70;99.90
5172;DHT22;2605;49.770;9.868;2023-04-28T08:53:25;11.90;99.90
5172;DHT22;2605;49.770;9.868;2023-04-28T08:55:56;12.00;99.90
5172;DHT22;2605;49.770;9.868;2023-04-28T08:58:23;12.00;99.90
5172;DHT22;2605;49.770;9.868;2023-04-28T09:00:52;12.20;99.90
5172;DHT22;2605;49.770;9.868;2023-04-28T09:03:19;12.20;99.90
5172;DHT22;2605;49.770;9.868;2023-04-28T09:05:44;12.30;99.90
5172;DHT22;2605;49.770;9.868;2023-04-28T09:08:10;12.20;99.90
5172;DHT22;2605;49.770;9.868;2023-04-28T09:10:38;12.30;99.90
5172;DHT22;2605;49.770;9.868;2023-04-28T09:13:04;12.50;99.90
5172;DHT22;2605;49.770;9.868;2023-04-28T09:15:35;13.00;99.90
5172;DHT22;2605;49.770;9.868;2023-04-28T09:18:05;13.60;99.90
5172;DHT22;2605;49.770;9.868;2023-04-28T09:20:33;14.00;99.90
5172;DHT22;2605;49.770;9.868;2023-04-28T09:23:21;14.30;99.90
5172;DHT22;2605;49.770;9.868;2023-04-28T09:26:04;14.10;99.90
5172;DHT22;2605;49.770;9.868;2023-04-28T09:28:31;14.10;99.90
5172;DHT22;2605;49.770;9.868;2023-04-28T09:30:57;13.90;99.90
5172;DHT22;2605;49.770;9.868;2023-04-28T09:33:23;13.90;99.90
5172;DHT22;2605;49.770;9.868;2023-04-28T09:35:49;13.90;99.90
5172;DHT22;2605;49.770;9.868;2023-04-28T09:38:15;13.80;99.90
5172;DHT22;2605;49.770;9.868;2023-04-28T09:40:52;13.50;99.90
5172;DHT22;2605;49.770;9.868;2023-04-28T09:43:32;13.40;99.90
5172;DHT22;2605;49.770;9.868;2023-04-28T09:46:02;13.40;99.90
5172;DHT22;2605;49.770;9.868;2023-04-28T09:48:32;13.40;99.90
5172;DHT22;2605;49.770;9.868;2023-04-28T09:51:00;13.50;99.90
5172;DHT22;2605;49.770;9.868;2023-04-28T09:53:26;13.40;99.90
5172;DHT22;2605;49.770;9.868;2023-04-28T09:55:55;13.40;99.90
5172;DHT22;2605;49.770;9.868;2023-04-28T09:58:21;13.50;99.90
5172;DHT22;2605;49.770;9.868;2023-04-28T10:00:54;13.60;99.90
5172;DHT22;2605;49.770;9.868;2023-04-28T10:03:21;13.70;99.90
5172;DHT22;2605;49.770;9.868;2023-04-28T10:05:48;13.90;99.90
5172;DHT22;2605;49.770;9.868;2023-04-28T10:08:16;14.00;99.90
5172;DHT22;2605;49.770;9.868;2023-04-28T10:10:43;14.00;99.90
5172;DHT22;2605;49.770;9.868;2023-04-28T10:13:08;14.00;99.90
5172;DHT22;2605;49.770;9.868;2023-04-28T10:15:36;14.20;99.90
5172;DHT22;2605;49.770;9.868;2023-04-28T10:18:03;14.40;99.90
5172;DHT22;2605;49.770;9.868;2023-04-28T10:20:29;14.50;99.90
5172;DHT22;2605;49.770;9.868;2023-04-28T10:25:54;14.60;99.90
5172;DHT22;2605;49.770;9.868;2023-04-28T10:28:21;14.80;99.90
5172;DHT22;2605;49.770;9.868;2023-04-28T10:31:22;14.90;99.90
5172;DHT22;2605;49.770;9.868;2023-04-28T10:33:49;15.10;99.90
5172;DHT22;2605;49.770;9.868;2023-04-28T10:36:50;15.20;99.90
5172;DHT22;2605;49.770;9.868;2023-04-28T10:39:19;15.30;99.90
5172;DHT22;2605;49.770;9.868;2023-04-28T10:41:46;15.40;99.90
5172;DHT22;2605;49.770;9.868;2023-04-28T10:44:40;15.40;99.90
5172;DHT22;2605;49.770;9.868;2023-04-28T10:47:07;15.40;99.90
5172;DHT22;2605;49.770;9.868;2023-04-28T10:55:33;15.30;99.90
5172;DHT22;2605;49.770;9.868;2023-04-28T11:00:46;14.90;99.90
5172;DHT22;2605;49.770;9.868;2023-04-28T11:08:49;14.40;99.90
5172;DHT22;2605;49.770;9.868;2023-04-28T11:11:19;14.30;99.90
5172;DHT22;2605;49.770;9.868;2023-04-28T11:13:46;14.20;99.90
5172;DHT22;2605;49.770;9.868;2023-04-28T11:16:17;14.60;99.90
5172;DHT22;2605;49.770;9.868;2023-04-28T11:19:01;14.50;99.90
5172;DHT22;2605;49.770;9.868;2023-04-28T11:21:31;14.00;99.90
5172;DHT22;2605;49.770;9.868;2023-04-28T11:23:57;14.30;99.90
5172;DHT22;2605;49.770;9.868;2023-04-28T11:26:23;14.50;99.90
5172;DHT22;2605;49.770;9.868;2023-04-28T11:28:54;14.70;99.90
5172;DHT22;2605;49.770;9.868;2023-04-28T11:31:22;15.50;99.90
5172;DHT22;2605;49.770;9.868;2023-04-28T11:34:18;16.10;99.90
5172;DHT22;2605;49.770;9.868;2023-04-28T11:36:47;16.40;99.90
5172;DHT22;2605;49.770;9.868;2023-04-28T11:39:13;16.10;99.90
5172;DHT22;2605;49.770;9.868;2023-04-28T11:41:43;16.50;99.90
5172;DHT22;2605;49.770;9.868;2023-04-28T11:46:50;16.00;99.90
5172;DHT22;2605;49.770;9.868;2023-04-28T11:49:21;16.20;99.90
5172;DHT22;2605;49.770;9.868;2023-04-28T11:51:49;16.40;99.90
5172;DHT22;2605;49.770;9.868;2023-04-28T11:54:26;16.50;99.90
5172;DHT22;2605;49.770;9.868;2023-04-28T11:56:53;16.40;99.90
5172;DHT22;2605;49.770;9.868;2023-04-28T11:59:26;16.60;99.90
5172;DHT22;2605;49.770;9.868;2023-04-28T12:01:57;16.90;99.90
5172;DHT22;2605;49.770;9.868;2023-04-28T12:04:34;16.80;99.90
5172;DHT22;2605;49.770;9.868;2023-04-28T12:07:13;16.70;99.90
5172;DHT22;2605;49.770;9.868;2023-04-28T12:09:41;17.10;99.90
5172;DHT22;2605;49.770;9.868;2023-04-28T12:12:15;16.60;99.90
5172;DHT22;2605;49.770;9.868;2023-04-28T12:14:59;16.20;99.90
5172;DHT22;2605;49.770;9.868;2023-04-28T12:17:34;15.70;99.90
5172;DHT22;2605;49.770;9.868;2023-04-28T12:20:01;15.60;99.90
5172;DHT22;2605;49.770;9.868;2023-04-28T12:22:28;15.60;99.90
5172;DHT22;2605;49.770;9.868;2023-04-28T12:25:08;15.50;99.90
5172;DHT22;2605;49.770;9.868;2023-04-28T12:27:35;15.90;99.90
5172;DHT22;2605;49.770;9.868;2023-04-28T12:30:04;16.40;99.90
5172;DHT22;2605;49.770;9.868;2023-04-28T12:32:48;16.60;99.90
5172;DHT22;2605;49.770;9.868;2023-04-28T12:35:13;16.50;99.90
5172;DHT22;2605;49.770;9.868;2023-04-28T12:37:41;16.20;99.90
5172;DHT22;2605;49.770;9.868;2023-04-28T12:40:08;16.20;99.90
5172;DHT22;2605;49.770;9.868;2023-04-28T12:42:34;16.20;99.90
5172;DHT22;2605;49.770;9.868;2023-04-28T12:44:59;16.20;99.90
5172;DHT22;2605;49.770;9.868;2023-04-28T12:47:25;16.00;99.90
5172;DHT22;2605;49.770;9.868;2023-04-28T12:49:50;16.10;99.90
5172;DHT22;2605;49.770;9.868;2023-04-28T12:52:18;16.00;99.90
5172;DHT22;2605;49.770;9.868;2023-04-28T12:54:43;15.60;99.90
5172;DHT22;2605;49.770;9.868;2023-04-28T12:57:12;15.40;99.90
5172;DHT22;2605;49.770;9.868;2023-04-28T12:59:38;15.30;99.90
5172;DHT22;2605;49.770;9.868;2023-04-28T13:02:03;15.10;99.90
5172;DHT22;2605;49.770;9.868;2023-04-28T13:04:29;15.10;99.90
5172;DHT22;2605;49.770;9.868;2023-04-28T13:06:56;15.00;99.90
5172;DHT22;2605;49.770;9.868;2023-04-28T13:09:24;15.10;99.90
5172;DHT22;2605;49.770;9.868;2023-04-28T13:11:50;15.00;99.90
5172;DHT22;2605;49.770;9.868;2023-04-28T13:14:18;14.90;99.90
5172;DHT22;2605;49.770;9.868;2023-04-28T13:16:44;14.90;99.90
5172;DHT22;2605;49.770;9.868;2023-04-28T13:19:09;15.10;99.90
5172;DHT22;2605;49.770;9.868;2023-04-28T13:21:38;15.00;99.90
5172;DHT22;2605;49.770;9.868;2023-04-28T13:24:04;15.10;99.90
5172;DHT22;2605;49.770;9.868;2023-04-28T13:26:30;15.20;99.90
5172;DHT22;2605;49.770;9.868;2023-04-28T13:28:55;15.40;99.90
5172;DHT22;2605;49.770;9.868;2023-04-28T13:31:21;15.80;99.90
5172;DHT22;2605;49.770;9.868;2023-04-28T13:33:46;16.10;99.90
5172;DHT22;2605;49.770;9.868;2023-04-28T13:36:12;16.10;99.90
5172;DHT22;2605;49.770;9.868;2023-04-28T13:38:38;16.40;99.90
5172;DHT22;2605;49.770;9.868;2023-04-28T13:41:03;15.90;99.90
5172;DHT22;2605;49.770;9.868;2023-04-28T13:43:29;15.80;99.90
5172;DHT22;2605;49.770;9.868;2023-04-28T13:45:55;15.60;99.90
5172;DHT22;2605;49.770;9.868;2023-04-28T13:48:21;15.70;99.90
5172;DHT22;2605;49.770;9.868;2023-04-28T13:50:47;15.80;99.90
5172;DHT22;2605;49.770;9.868;2023-04-28T13:53:15;15.50;99.90
5172;DHT22;2605;49.770;9.868;2023-04-28T13:55:41;15.40;99.90
5172;DHT22;2605;49.770;9.868;2023-04-28T13:58:07;15.30;99.90
5172;DHT22;2605;49.770;9.868;2023-04-28T14:00:33;15.30;99.90
5172;DHT22;2605;49.770;9.868;2023-04-28T14:02:59;15.40;99.90
5172;DHT22;2605;49.770;9.868;2023-04-28T14:05:25;15.50;99.90
5172;DHT22;2605;49.770;9.868;2023-04-28T14:07:53;15.90;99.90
5172;DHT22;2605;49.770;9.868;2023-04-28T14:10:19;16.10;99.90
5172;DHT22;2605;49.770;9.868;2023-04-28T14:12:45;16.50;99.90
5172;DHT22;2605;49.770;9.868;2023-04-28T14:15:10;16.70;99.90
5172;DHT22;2605;49.770;9.868;2023-04-28T14:17:36;16.70;99.90
5172;DHT22;2605;49.770;9.868;2023-04-28T14:20:02;17.00;99.90
5172;DHT22;2605;49.770;9.868;2023-04-28T14:22:28;17.30;99.90
5172;DHT22;2605;49.770;9.868;2023-04-28T14:24:53;17.80;99.90
5172;DHT22;2605;49.770;9.868;2023-04-28T14:27:19;18.10;99.90
5172;DHT22;2605;49.770;9.868;2023-04-28T14:29:45;18.30;99.90
5172;DHT22;2605;49.770;9.868;2023-04-28T14:32:13;18.90;99.90
5172;DHT22;2605;49.770;9.868;2023-04-28T14:34:38;19.30;99.90
5172;DHT22;2605;49.770;9.868;2023-04-28T14:37:04;19.70;99.90
5172;DHT22;2605;49.770;9.868;2023-04-28T14:39:30;19.90;99.90
5172;DHT22;2605;49.770;9.868;2023-04-28T14:41:56;19.80;99.90
5172;DHT22;2605;49.770;9.868;2023-04-28T14:44:21;19.80;99.90
5172;DHT22;2605;49.770;9.868;2023-04-28T14:46:47;19.60;99.90
5172;DHT22;2605;49.770;9.868;2023-04-28T14:49:13;19.70;99.90
5172;DHT22;2605;49.770;9.868;2023-04-28T14:51:38;19.20;99.90
5172;DHT22;2605;49.770;9.868;2023-04-28T14:54:04;18.40;99.90
5172;DHT22;2605;49.770;9.868;2023-04-28T14:56:29;18.10;99.90
5172;DHT22;2605;49.770;9.868;2023-04-28T14:58:55;17.90;99.90
5172;DHT22;2605;49.770;9.868;2023-04-28T15:01:20;18.60;99.90
5172;DHT22;2605;49.770;9.868;2023-04-28T15:03:46;19.10;99.90
5172;DHT22;2605;49.770;9.868;2023-04-28T15:06:11;18.80;99.90
5172;DHT22;2605;49.770;9.868;2023-04-28T15:08:37;19.30;99.90
5172;DHT22;2605;49.770;9.868;2023-04-28T15:11:04;19.50;99.90
5172;DHT22;2605;49.770;9.868;2023-04-28T15:13:30;19.40;99.90
5172;DHT22;2605;49.770;9.868;2023-04-28T15:15:56;18.30;99.90
5172;DHT22;2605;49.770;9.868;2023-04-28T15:18:22;17.90;99.90
5172;DHT22;2605;49.770;9.868;2023-04-28T15:20:48;17.70;99.90
5172;DHT22;2605;49.770;9.868;2023-04-28T15:23:13;18.70;99.90
5172;DHT22;2605;49.770;9.868;2023-04-28T15:25:39;18.60;99.90
5172;DHT22;2605;49.770;9.868;2023-04-28T15:28:08;18.40;99.90
5172;DHT22;2605;49.770;9.868;2023-04-28T15:30:33;18.50;99.90
5172;DHT22;2605;49.770;9.868;2023-04-28T15:32:59;18.20;99.90
5172;DHT22;2605;49.770;9.868;2023-04-28T15:35:25;18.50;99.90
5172;DHT22;2605;49.770;9.868;2023-04-28T15:37:50;18.40;99.90
5172;DHT22;2605;49.770;9.868;2023-04-28T15:40:17;18.40;99.90
5172;DHT22;2605;49.770;9.868;2023-04-28T15:42:44;18.20;99.90
5172;DHT22;2605;49.770;9.868;2023-04-28T15:45:14;18.30;99.90
5172;DHT22;2605;49.770;9.868;2023-04-28T15:47:40;18.60;99.90
5172;DHT22;2605;49.770;9.868;2023-04-28T15:50:08;18.70;99.90
5172;DHT22;2605;49.770;9.868;2023-04-28T15:52:40;18.80;99.90
5172;DHT22;2605;49.770;9.868;2023-04-28T15:55:14;18.90;99.90
5172;DHT22;2605;49.770;9.868;2023-04-28T15:57:40;18.80;99.90
5172;DHT22;2605;49.770;9.868;2023-04-28T16:00:07;19.50;99.90
5172;DHT22;2605;49.770;9.868;2023-04-28T16:02:33;21.70;99.90
5172;DHT22;2605;49.770;9.868;2023-04-28T16:04:59;26.10;99.90
5172;DHT22;2605;49.770;9.868;2023-04-28T16:07:27;28.00;99.90
5172;DHT22;2605;49.770;9.868;2023-04-28T16:09:52;27.70;99.90
5172;DHT22;2605;49.770;9.868;2023-04-28T16:12:18;26.70;99.90
5172;DHT22;2605;49.770;9.868;2023-04-28T16:14:47;25.70;99.90
5172;DHT22;2605;49.770;9.868;2023-04-28T16:17:13;24.20;99.90
5172;DHT22;2605;49.770;9.868;2023-04-28T16:19:39;23.20;99.90